Terminal Aerodrome Forecast
Issued by NWS

Home | Current Version | Previous Version | Text Only | Print | Product List | Glossary On
Versions: 1 2 3 4 5 6 7 8 9 10 11 12 13 14 15 16 17 18 19 20 21 22 23 24 25 26 27 28 29 30
000
FTUS43 KDLH 272300
TAFHYR
TAF
KHYR 272333Z 2800/2824 VRB04KT P6SM VCSH SCT060 SCT100
     FM280300 00000KT P6SM SCT110
     FM280900 00000KT 6SM BR SKC
     FM281400 14007KT P6SM SCT080 SCT130
     FM281900 16009G14KT P6SM SCT060 BKN140=

USA.gov is the U.S. government's official web portal to all federal, state and local government web resources and services.